Carmichael, Mississippi
Current Conditions -  °F | °C
As of 4:53 PM on Wednesday 22 Oct 2014 (Local Time) from KHBG Reporting Station
Clear Clear  
Wind Chill: 76°   Ceiling: Unl
Heat Index: 76°   Visibility: 10mi
Dew Point: 51°   Wind: 6mph
Humidity: 42%   Direction: 10°N
Pressure: 30.06"   Gusts: NA
Location:  31.0408°N, 88.8997°W
Report Text: KHBG 222153Z AUTO 01005KT 10SM CLR 24/11 A3006 RMK AO2 SLP176 T02440106
Loading
Personal Weather Stations






























Interactive Weather Map
Tropical Storm Tracking
New forecast layout! Learn more

10-Day Weather Forecast

Advertisements
Track Severe Weather on mobile